sensor_id;sensor_type;location;lat;lon;timestamp;P1;durP1;ratioP1;P2;durP2;ratioP2
3267;SDS011;1646;52.450;13.326;2023-04-02T00:01:04;3.97;;;3.30;;
3267;SDS011;1646;52.450;13.326;2023-04-02T00:06:27;8.80;;;5.03;;
3267;SDS011;1646;52.450;13.326;2023-04-02T00:11:31;7.97;;;5.70;;
3267;SDS011;1646;52.450;13.326;2023-04-02T00:16:31;11.90;;;6.10;;
3267;SDS011;1646;52.450;13.326;2023-04-02T00:21:31;9.00;;;5.30;;
3267;SDS011;1646;52.450;13.326;2023-04-02T00:26:36;7.83;;;5.40;;
3267;SDS011;1646;52.450;13.326;2023-04-02T00:31:36;9.90;;;4.80;;
3267;SDS011;1646;52.450;13.326;2023-04-02T00:36:39;6.67;;;3.83;;
3267;SDS011;1646;52.450;13.326;2023-04-02T00:41:39;9.03;;;4.10;;
3267;SDS011;1646;52.450;13.326;2023-04-02T00:46:42;7.03;;;3.47;;
3267;SDS011;1646;52.450;13.326;2023-04-02T00:51:47;7.20;;;4.30;;
3267;SDS011;1646;52.450;13.326;2023-04-02T00:56:49;5.47;;;4.07;;
3267;SDS011;1646;52.450;13.326;2023-04-02T01:01:50;7.00;;;5.03;;
3267;SDS011;1646;52.450;13.326;2023-04-02T01:06:52;7.27;;;4.30;;
3267;SDS011;1646;52.450;13.326;2023-04-02T01:11:58;5.60;;;3.93;;
3267;SDS011;1646;52.450;13.326;2023-04-02T01:17:19;6.33;;;4.00;;
3267;SDS011;1646;52.450;13.326;2023-04-02T01:22:32;6.40;;;3.50;;
3267;SDS011;1646;52.450;13.326;2023-04-02T01:27:37;6.97;;;3.40;;
3267;SDS011;1646;52.450;13.326;2023-04-02T01:32:41;4.57;;;3.50;;
3267;SDS011;1646;52.450;13.326;2023-04-02T01:37:41;4.57;;;3.50;;
3267;SDS011;1646;52.450;13.326;2023-04-02T01:42:47;3.50;;;3.20;;
3267;SDS011;1646;52.450;13.326;2023-04-02T01:47:54;4.27;;;3.43;;
3267;SDS011;1646;52.450;13.326;2023-04-02T01:52:54;8.43;;;3.20;;
3267;SDS011;1646;52.450;13.326;2023-04-02T01:57:55;5.07;;;3.40;;
3267;SDS011;1646;52.450;13.326;2023-04-02T02:02:58;5.03;;;3.40;;
3267;SDS011;1646;52.450;13.326;2023-04-02T02:07:58;4.33;;;3.40;;
3267;SDS011;1646;52.450;13.326;2023-04-02T02:12:57;7.80;;;3.50;;
3267;SDS011;1646;52.450;13.326;2023-04-02T02:17:58;4.07;;;2.80;;
3267;SDS011;1646;52.450;13.326;2023-04-02T02:22:59;5.00;;;3.60;;
3267;SDS011;1646;52.450;13.326;2023-04-02T02:28:01;2.97;;;2.53;;
3267;SDS011;1646;52.450;13.326;2023-04-02T02:33:05;5.80;;;2.77;;
3267;SDS011;1646;52.450;13.326;2023-04-02T02:38:19;6.10;;;2.50;;
3267;SDS011;1646;52.450;13.326;2023-04-02T02:43:47;11.83;;;2.90;;
3267;SDS011;1646;52.450;13.326;2023-04-02T02:48:54;3.70;;;2.17;;
3267;SDS011;1646;52.450;13.326;2023-04-02T02:53:56;5.30;;;2.57;;
3267;SDS011;1646;52.450;13.326;2023-04-02T02:58:59;3.40;;;2.73;;
3267;SDS011;1646;52.450;13.326;2023-04-02T03:04:06;11.20;;;2.40;;
3267;SDS011;1646;52.450;13.326;2023-04-02T03:09:08;3.47;;;1.93;;
3267;SDS011;1646;52.450;13.326;2023-04-02T03:14:15;4.00;;;2.13;;
3267;SDS011;1646;52.450;13.326;2023-04-02T03:19:25;3.13;;;2.40;;
3267;SDS011;1646;52.450;13.326;2023-04-02T03:24:29;6.37;;;2.00;;
3267;SDS011;1646;52.450;13.326;2023-04-02T03:29:32;4.77;;;2.00;;
3267;SDS011;1646;52.450;13.326;2023-04-02T03:34:35;2.00;;;1.80;;
3267;SDS011;1646;52.450;13.326;2023-04-02T03:39:40;5.00;;;2.40;;
3267;SDS011;1646;52.450;13.326;2023-04-02T03:44:43;3.77;;;2.03;;
3267;SDS011;1646;52.450;13.326;2023-04-02T03:49:48;5.83;;;1.87;;
3267;SDS011;1646;52.450;13.326;2023-04-02T03:54:54;5.53;;;2.30;;
3267;SDS011;1646;52.450;13.326;2023-04-02T03:59:57;4.23;;;2.17;;
3267;SDS011;1646;52.450;13.326;2023-04-02T04:05:19;6.50;;;2.00;;
3267;SDS011;1646;52.450;13.326;2023-04-02T04:10:23;3.40;;;2.60;;
3267;SDS011;1646;52.450;13.326;2023-04-02T04:15:24;12.13;;;3.10;;
3267;SDS011;1646;52.450;13.326;2023-04-02T04:20:29;7.40;;;2.80;;
3267;SDS011;1646;52.450;13.326;2023-04-02T04:25:31;4.67;;;2.60;;
3267;SDS011;1646;52.450;13.326;2023-04-02T04:30:42;3.43;;;1.80;;
3267;SDS011;1646;52.450;13.326;2023-04-02T04:35:50;3.97;;;2.33;;
3267;SDS011;1646;52.450;13.326;2023-04-02T04:40:53;8.00;;;1.97;;
3267;SDS011;1646;52.450;13.326;2023-04-02T04:45:59;6.83;;;2.17;;
3267;SDS011;1646;52.450;13.326;2023-04-02T04:51:02;8.27;;;2.40;;
3267;SDS011;1646;52.450;13.326;2023-04-02T04:56:06;3.27;;;2.00;;
3267;SDS011;1646;52.450;13.326;2023-04-02T05:01:20;5.97;;;1.90;;
3267;SDS011;1646;52.450;13.326;2023-04-02T05:06:31;6.60;;;1.70;;
3267;SDS011;1646;52.450;13.326;2023-04-02T05:11:36;2.53;;;1.90;;
3267;SDS011;1646;52.450;13.326;2023-04-02T05:16:39;2.67;;;2.00;;
3267;SDS011;1646;52.450;13.326;2023-04-02T05:21:46;6.40;;;2.67;;
3267;SDS011;1646;52.450;13.326;2023-04-02T05:26:48;6.50;;;2.60;;
3267;SDS011;1646;52.450;13.326;2023-04-02T05:31:52;4.27;;;2.47;;
3267;SDS011;1646;52.450;13.326;2023-04-02T05:36:57;3.00;;;2.23;;
3267;SDS011;1646;52.450;13.326;2023-04-02T05:41:56;6.33;;;2.43;;
3267;SDS011;1646;52.450;13.326;2023-04-02T05:47:11;5.37;;;2.60;;
3267;SDS011;1646;52.450;13.326;2023-04-02T05:52:14;5.50;;;2.67;;
3267;SDS011;1646;52.450;13.326;2023-04-02T05:57:19;5.50;;;2.37;;
3267;SDS011;1646;52.450;13.326;2023-04-02T06:02:39;6.17;;;2.43;;
3267;SDS011;1646;52.450;13.326;2023-04-02T06:07:45;5.33;;;2.77;;
3267;SDS011;1646;52.450;13.326;2023-04-02T06:12:50;8.10;;;2.40;;
3267;SDS011;1646;52.450;13.326;2023-04-02T06:17:57;4.50;;;2.30;;
3267;SDS011;1646;52.450;13.326;2023-04-02T06:23:00;4.80;;;2.53;;
3267;SDS011;1646;52.450;13.326;2023-04-02T06:28:02;3.57;;;1.60;;
3267;SDS011;1646;52.450;13.326;2023-04-02T06:33:03;8.30;;;2.10;;
3267;SDS011;1646;52.450;13.326;2023-04-02T06:38:07;3.43;;;1.93;;
3267;SDS011;1646;52.450;13.326;2023-04-02T06:43:15;4.20;;;1.47;;
3267;SDS011;1646;52.450;13.326;2023-04-02T06:48:30;5.13;;;1.30;;
3267;SDS011;1646;52.450;13.326;2023-04-02T06:53:32;2.37;;;1.10;;
3267;SDS011;1646;52.450;13.326;2023-04-02T06:58:34;2.93;;;1.30;;
3267;SDS011;1646;52.450;13.326;2023-04-02T07:03:32;2.70;;;1.37;;
3267;SDS011;1646;52.450;13.326;2023-04-02T07:08:41;4.10;;;1.73;;
3267;SDS011;1646;52.450;13.326;2023-04-02T07:13:41;6.53;;;1.73;;
3267;SDS011;1646;52.450;13.326;2023-04-02T07:18:40;2.20;;;1.50;;
3267;SDS011;1646;52.450;13.326;2023-04-02T07:23:39;3.20;;;1.37;;
3267;SDS011;1646;52.450;13.326;2023-04-02T07:28:39;5.67;;;1.50;;
3267;SDS011;1646;52.450;13.326;2023-04-02T07:33:37;3.30;;;1.20;;
3267;SDS011;1646;52.450;13.326;2023-04-02T07:38:37;3.07;;;1.20;;
3267;SDS011;1646;52.450;13.326;2023-04-02T07:43:35;2.97;;;1.30;;
3267;SDS011;1646;52.450;13.326;2023-04-02T07:48:35;3.03;;;1.23;;
3267;SDS011;1646;52.450;13.326;2023-04-02T07:53:34;3.57;;;1.30;;
3267;SDS011;1646;52.450;13.326;2023-04-02T07:58:34;2.63;;;1.10;;
3267;SDS011;1646;52.450;13.326;2023-04-02T08:03:32;3.87;;;1.03;;
3267;SDS011;1646;52.450;13.326;2023-04-02T08:08:32;3.10;;;1.63;;
3267;SDS011;1646;52.450;13.326;2023-04-02T08:13:30;2.60;;;1.70;;
3267;SDS011;1646;52.450;13.326;2023-04-02T08:18:29;1.40;;;1.07;;
3267;SDS011;1646;52.450;13.326;2023-04-02T08:23:28;2.73;;;1.13;;
3267;SDS011;1646;52.450;13.326;2023-04-02T08:28:28;4.30;;;1.13;;
3267;SDS011;1646;52.450;13.326;2023-04-02T08:33:26;6.30;;;1.33;;
3267;SDS011;1646;52.450;13.326;2023-04-02T08:38:24;2.47;;;1.30;;
3267;SDS011;1646;52.450;13.326;2023-04-02T08:43:26;7.10;;;1.80;;
3267;SDS011;1646;52.450;13.326;2023-04-02T08:48:37;1.20;;;1.10;;
3267;SDS011;1646;52.450;13.326;2023-04-02T08:53:40;2.30;;;1.37;;
3267;SDS011;1646;52.450;13.326;2023-04-02T08:58:39;1.90;;;1.40;;
3267;SDS011;1646;52.450;13.326;2023-04-02T09:03:39;2.57;;;1.40;;
3267;SDS011;1646;52.450;13.326;2023-04-02T09:08:39;3.23;;;1.40;;
3267;SDS011;1646;52.450;13.326;2023-04-02T09:13:44;1.90;;;1.57;;
3267;SDS011;1646;52.450;13.326;2023-04-02T09:18:43;6.23;;;1.63;;
3267;SDS011;1646;52.450;13.326;2023-04-02T09:23:43;4.20;;;1.37;;
3267;SDS011;1646;52.450;13.326;2023-04-02T09:28:43;1.47;;;1.33;;
3267;SDS011;1646;52.450;13.326;2023-04-02T09:33:42;1.87;;;1.33;;
3267;SDS011;1646;52.450;13.326;2023-04-02T09:38:44;3.03;;;1.63;;
3267;SDS011;1646;52.450;13.326;2023-04-02T09:44:12;5.20;;;1.53;;
3267;SDS011;1646;52.450;13.326;2023-04-02T09:49:16;4.07;;;1.70;;
3267;SDS011;1646;52.450;13.326;2023-04-02T09:54:16;5.27;;;1.70;;
3267;SDS011;1646;52.450;13.326;2023-04-02T09:59:16;2.90;;;1.30;;
3267;SDS011;1646;52.450;13.326;2023-04-02T10:04:32;2.50;;;1.27;;
3267;SDS011;1646;52.450;13.326;2023-04-02T10:09:33;3.80;;;1.30;;
3267;SDS011;1646;52.450;13.326;2023-04-02T10:14:35;2.60;;;1.40;;
3267;SDS011;1646;52.450;13.326;2023-04-02T10:19:36;4.93;;;1.80;;
3267;SDS011;1646;52.450;13.326;2023-04-02T10:24:37;4.33;;;1.30;;
3267;SDS011;1646;52.450;13.326;2023-04-02T10:29:41;4.97;;;1.33;;
3267;SDS011;1646;52.450;13.326;2023-04-02T10:34:49;4.93;;;1.50;;
3267;SDS011;1646;52.450;13.326;2023-04-02T10:39:54;2.70;;;1.40;;
3267;SDS011;1646;52.450;13.326;2023-04-02T10:44:58;3.53;;;1.33;;
3267;SDS011;1646;52.450;13.326;2023-04-02T10:50:04;7.70;;;1.23;;
3267;SDS011;1646;52.450;13.326;2023-04-02T10:55:15;3.23;;;1.53;;
3267;SDS011;1646;52.450;13.326;2023-04-02T11:00:20;7.60;;;1.50;;
3267;SDS011;1646;52.450;13.326;2023-04-02T11:05:25;4.20;;;1.20;;
3267;SDS011;1646;52.450;13.326;2023-04-02T11:10:29;5.30;;;1.20;;
3267;SDS011;1646;52.450;13.326;2023-04-02T11:15:31;5.47;;;1.30;;
3267;SDS011;1646;52.450;13.326;2023-04-02T11:20:42;5.30;;;1.30;;
3267;SDS011;1646;52.450;13.326;2023-04-02T11:25:53;3.00;;;1.40;;
3267;SDS011;1646;52.450;13.326;2023-04-02T11:31:27;2.57;;;1.67;;
3267;SDS011;1646;52.450;13.326;2023-04-02T11:42:20;4.70;;;1.30;;
3267;SDS011;1646;52.450;13.326;2023-04-02T11:47:25;2.60;;;1.10;;
3267;SDS011;1646;52.450;13.326;2023-04-02T11:52:30;7.83;;;1.50;;
3267;SDS011;1646;52.450;13.326;2023-04-02T11:57:40;5.67;;;2.20;;
3267;SDS011;1646;52.450;13.326;2023-04-02T12:02:52;5.20;;;1.83;;
3267;SDS011;1646;52.450;13.326;2023-04-02T12:08:07;2.30;;;1.43;;
3267;SDS011;1646;52.450;13.326;2023-04-02T12:13:19;5.20;;;1.83;;
3267;SDS011;1646;52.450;13.326;2023-04-02T12:18:41;4.40;;;1.97;;
3267;SDS011;1646;52.450;13.326;2023-04-02T12:23:43;5.20;;;1.70;;
3267;SDS011;1646;52.450;13.326;2023-04-02T12:28:43;5.17;;;1.70;;
3267;SDS011;1646;52.450;13.326;2023-04-02T12:33:43;9.50;;;2.30;;
3267;SDS011;1646;52.450;13.326;2023-04-02T12:38:42;7.43;;;2.50;;
3267;SDS011;1646;52.450;13.326;2023-04-02T12:43:42;3.40;;;1.57;;
3267;SDS011;1646;52.450;13.326;2023-04-02T12:48:40;4.40;;;1.40;;
3267;SDS011;1646;52.450;13.326;2023-04-02T12:53:40;3.20;;;1.20;;
3267;SDS011;1646;52.450;13.326;2023-04-02T12:58:39;2.50;;;1.30;;
3267;SDS011;1646;52.450;13.326;2023-04-02T13:03:39;1.57;;;1.20;;
3267;SDS011;1646;52.450;13.326;2023-04-02T13:08:39;4.67;;;1.27;;
3267;SDS011;1646;52.450;13.326;2023-04-02T13:13:39;4.97;;;1.80;;
3267;SDS011;1646;52.450;13.326;2023-04-02T13:18:40;1.63;;;0.90;;
3267;SDS011;1646;52.450;13.326;2023-04-02T13:23:41;3.20;;;1.20;;
3267;SDS011;1646;52.450;13.326;2023-04-02T13:28:41;2.77;;;1.37;;
3267;SDS011;1646;52.450;13.326;2023-04-02T13:33:39;2.90;;;1.33;;
3267;SDS011;1646;52.450;13.326;2023-04-02T13:38:38;5.90;;;1.13;;
3267;SDS011;1646;52.450;13.326;2023-04-02T13:43:37;2.57;;;1.50;;
3267;SDS011;1646;52.450;13.326;2023-04-02T13:48:36;10.83;;;2.40;;
3267;SDS011;1646;52.450;13.326;2023-04-02T13:53:35;1.87;;;1.30;;
3267;SDS011;1646;52.450;13.326;2023-04-02T13:58:33;2.30;;;1.13;;
3267;SDS011;1646;52.450;13.326;2023-04-02T14:03:32;3.00;;;0.97;;
3267;SDS011;1646;52.450;13.326;2023-04-02T14:08:34;1.90;;;1.00;;
3267;SDS011;1646;52.450;13.326;2023-04-02T14:13:47;3.70;;;1.10;;
3267;SDS011;1646;52.450;13.326;2023-04-02T14:24:23;4.03;;;1.20;;
3267;SDS011;1646;52.450;13.326;2023-04-02T14:29:27;3.47;;;1.30;;
3267;SDS011;1646;52.450;13.326;2023-04-02T14:34:34;5.80;;;1.20;;
3267;SDS011;1646;52.450;13.326;2023-04-02T14:39:40;3.50;;;1.47;;
3267;SDS011;1646;52.450;13.326;2023-04-02T14:44:43;6.27;;;1.27;;
3267;SDS011;1646;52.450;13.326;2023-04-02T14:49:49;5.20;;;1.10;;
3267;SDS011;1646;52.450;13.326;2023-04-02T14:54:51;7.60;;;1.00;;
3267;SDS011;1646;52.450;13.326;2023-04-02T14:59:56;2.73;;;0.80;;
3267;SDS011;1646;52.450;13.326;2023-04-02T15:05:00;2.50;;;1.03;;
3267;SDS011;1646;52.450;13.326;2023-04-02T15:10:04;2.70;;;1.13;;
3267;SDS011;1646;52.450;13.326;2023-04-02T15:15:12;1.87;;;1.20;;
3267;SDS011;1646;52.450;13.326;2023-04-02T15:20:35;2.00;;;0.90;;
3267;SDS011;1646;52.450;13.326;2023-04-02T15:25:39;2.77;;;1.10;;
3267;SDS011;1646;52.450;13.326;2023-04-02T15:30:43;4.97;;;1.07;;
3267;SDS011;1646;52.450;13.326;2023-04-02T15:35:46;6.23;;;1.20;;
3267;SDS011;1646;52.450;13.326;2023-04-02T15:40:53;4.13;;;1.10;;
3267;SDS011;1646;52.450;13.326;2023-04-02T15:46:04;4.57;;;1.70;;
3267;SDS011;1646;52.450;13.326;2023-04-02T15:51:19;3.87;;;1.20;;
3267;SDS011;1646;52.450;13.326;2023-04-02T15:56:26;5.80;;;2.00;;
3267;SDS011;1646;52.450;13.326;2023-04-02T16:01:37;3.13;;;1.50;;
3267;SDS011;1646;52.450;13.326;2023-04-02T16:06:44;3.83;;;1.40;;
3267;SDS011;1646;52.450;13.326;2023-04-02T16:11:57;2.47;;;1.20;;
3267;SDS011;1646;52.450;13.326;2023-04-02T16:17:05;2.73;;;1.20;;
3267;SDS011;1646;52.450;13.326;2023-04-02T16:22:23;5.83;;;1.10;;
3267;SDS011;1646;52.450;13.326;2023-04-02T16:27:25;5.97;;;1.37;;
3267;SDS011;1646;52.450;13.326;2023-04-02T16:32:36;7.60;;;1.53;;
3267;SDS011;1646;52.450;13.326;2023-04-02T16:37:48;5.30;;;1.10;;
3267;SDS011;1646;52.450;13.326;2023-04-02T16:42:51;5.73;;;1.07;;
3267;SDS011;1646;52.450;13.326;2023-04-02T16:47:59;1.80;;;1.23;;
3267;SDS011;1646;52.450;13.326;2023-04-02T16:53:13;4.50;;;1.27;;
3267;SDS011;1646;52.450;13.326;2023-04-02T16:58:24;3.00;;;1.30;;
3267;SDS011;1646;52.450;13.326;2023-04-02T17:03:37;4.03;;;1.23;;
3267;SDS011;1646;52.450;13.326;2023-04-02T17:08:50;9.20;;;1.27;;
3267;SDS011;1646;52.450;13.326;2023-04-02T17:13:53;4.43;;;1.23;;
3267;SDS011;1646;52.450;13.326;2023-04-02T17:19:04;3.70;;;1.23;;
3267;SDS011;1646;52.450;13.326;2023-04-02T17:24:13;5.60;;;1.50;;
3267;SDS011;1646;52.450;13.326;2023-04-02T17:29:19;4.83;;;1.30;;
3267;SDS011;1646;52.450;13.326;2023-04-02T17:34:20;2.33;;;1.23;;
3267;SDS011;1646;52.450;13.326;2023-04-02T17:39:22;2.73;;;1.30;;
3267;SDS011;1646;52.450;13.326;2023-04-02T17:44:40;3.00;;;1.40;;
3267;SDS011;1646;52.450;13.326;2023-04-02T17:49:52;6.10;;;1.93;;
3267;SDS011;1646;52.450;13.326;2023-04-02T17:55:03;4.50;;;1.53;;
3267;SDS011;1646;52.450;13.326;2023-04-02T18:00:15;5.20;;;1.90;;
3267;SDS011;1646;52.450;13.326;2023-04-02T18:05:21;6.13;;;1.97;;
3267;SDS011;1646;52.450;13.326;2023-04-02T18:10:27;4.07;;;1.43;;
3267;SDS011;1646;52.450;13.326;2023-04-02T18:15:38;4.97;;;1.73;;
3267;SDS011;1646;52.450;13.326;2023-04-02T18:20:45;6.03;;;1.50;;
3267;SDS011;1646;52.450;13.326;2023-04-02T18:25:52;4.40;;;1.70;;
3267;SDS011;1646;52.450;13.326;2023-04-02T18:30:59;5.93;;;1.87;;
3267;SDS011;1646;52.450;13.326;2023-04-02T18:36:02;3.70;;;1.30;;
3267;SDS011;1646;52.450;13.326;2023-04-02T18:41:13;8.27;;;1.43;;
3267;SDS011;1646;52.450;13.326;2023-04-02T18:46:25;3.37;;;2.23;;
3267;SDS011;1646;52.450;13.326;2023-04-02T18:51:33;4.37;;;1.23;;
3267;SDS011;1646;52.450;13.326;2023-04-02T18:56:35;5.90;;;1.23;;
3267;SDS011;1646;52.450;13.326;2023-04-02T19:01:36;4.30;;;1.57;;
3267;SDS011;1646;52.450;13.326;2023-04-02T19:06:38;4.87;;;1.53;;
3267;SDS011;1646;52.450;13.326;2023-04-02T19:11:41;7.73;;;1.63;;
3267;SDS011;1646;52.450;13.326;2023-04-02T19:16:43;5.87;;;1.50;;
3267;SDS011;1646;52.450;13.326;2023-04-02T19:22:04;4.20;;;1.60;;
3267;SDS011;1646;52.450;13.326;2023-04-02T19:27:15;3.77;;;1.30;;
3267;SDS011;1646;52.450;13.326;2023-04-02T19:32:21;6.90;;;2.30;;
3267;SDS011;1646;52.450;13.326;2023-04-02T19:37:31;4.83;;;1.43;;
3267;SDS011;1646;52.450;13.326;2023-04-02T19:42:47;8.30;;;1.93;;
3267;SDS011;1646;52.450;13.326;2023-04-02T19:47:46;4.63;;;1.67;;
3267;SDS011;1646;52.450;13.326;2023-04-02T19:52:45;6.50;;;1.50;;
3267;SDS011;1646;52.450;13.326;2023-04-02T19:57:43;4.23;;;1.50;;
3267;SDS011;1646;52.450;13.326;2023-04-02T20:02:43;9.37;;;2.17;;
3267;SDS011;1646;52.450;13.326;2023-04-02T20:07:41;6.60;;;1.60;;
3267;SDS011;1646;52.450;13.326;2023-04-02T20:12:39;3.03;;;1.67;;
3267;SDS011;1646;52.450;13.326;2023-04-02T20:17:37;3.87;;;1.43;;
3267;SDS011;1646;52.450;13.326;2023-04-02T20:22:37;10.17;;;1.60;;
3267;SDS011;1646;52.450;13.326;2023-04-02T20:27:35;6.00;;;1.93;;
3267;SDS011;1646;52.450;13.326;2023-04-02T20:32:34;6.53;;;1.50;;
3267;SDS011;1646;52.450;13.326;2023-04-02T20:37:33;9.60;;;1.47;;
3267;SDS011;1646;52.450;13.326;2023-04-02T20:42:33;5.33;;;1.57;;
3267;SDS011;1646;52.450;13.326;2023-04-02T20:47:31;7.43;;;1.30;;
3267;SDS011;1646;52.450;13.326;2023-04-02T20:52:31;3.67;;;1.70;;
3267;SDS011;1646;52.450;13.326;2023-04-02T20:57:29;6.30;;;1.77;;
3267;SDS011;1646;52.450;13.326;2023-04-02T21:02:29;3.93;;;1.57;;
3267;SDS011;1646;52.450;13.326;2023-04-02T21:07:28;8.17;;;1.53;;
3267;SDS011;1646;52.450;13.326;2023-04-02T21:12:26;10.60;;;2.10;;
3267;SDS011;1646;52.450;13.326;2023-04-02T21:17:24;4.10;;;1.90;;
3267;SDS011;1646;52.450;13.326;2023-04-02T21:22:24;8.67;;;1.47;;
3267;SDS011;1646;52.450;13.326;2023-04-02T21:27:22;5.07;;;1.60;;
3267;SDS011;1646;52.450;13.326;2023-04-02T21:32:21;7.07;;;1.53;;
3267;SDS011;1646;52.450;13.326;2023-04-02T21:37:19;10.20;;;1.73;;
3267;SDS011;1646;52.450;13.326;2023-04-02T21:42:19;4.77;;;1.63;;
3267;SDS011;1646;52.450;13.326;2023-04-02T21:47:17;4.90;;;1.50;;
3267;SDS011;1646;52.450;13.326;2023-04-02T21:52:16;7.47;;;1.70;;
3267;SDS011;1646;52.450;13.326;2023-04-02T21:57:14;8.43;;;1.43;;
3267;SDS011;1646;52.450;13.326;2023-04-02T22:02:15;6.00;;;1.70;;
3267;SDS011;1646;52.450;13.326;2023-04-02T22:07:14;5.17;;;1.20;;
3267;SDS011;1646;52.450;13.326;2023-04-02T22:12:12;4.30;;;1.63;;
3267;SDS011;1646;52.450;13.326;2023-04-02T22:17:10;3.63;;;1.77;;
3267;SDS011;1646;52.450;13.326;2023-04-02T22:22:10;7.30;;;1.50;;
3267;SDS011;1646;52.450;13.326;2023-04-02T22:27:08;15.43;;;1.90;;
3267;SDS011;1646;52.450;13.326;2023-04-02T22:32:07;6.90;;;1.83;;
3267;SDS011;1646;52.450;13.326;2023-04-02T22:37:06;3.63;;;1.77;;
3267;SDS011;1646;52.450;13.326;2023-04-02T22:42:05;2.70;;;1.40;;
3267;SDS011;1646;52.450;13.326;2023-04-02T22:47:03;6.70;;;1.70;;
3267;SDS011;1646;52.450;13.326;2023-04-02T22:52:02;8.03;;;2.03;;
3267;SDS011;1646;52.450;13.326;2023-04-02T22:57:01;4.47;;;1.60;;
3267;SDS011;1646;52.450;13.326;2023-04-02T23:02:01;2.67;;;1.60;;
3267;SDS011;1646;52.450;13.326;2023-04-02T23:06:59;7.03;;;2.13;;
3267;SDS011;1646;52.450;13.326;2023-04-02T23:11:57;2.47;;;1.47;;
3267;SDS011;1646;52.450;13.326;2023-04-02T23:16:56;12.83;;;2.60;;
3267;SDS011;1646;52.450;13.326;2023-04-02T23:21:55;12.13;;;2.17;;
3267;SDS011;1646;52.450;13.326;2023-04-02T23:26:53;5.30;;;1.70;;
3267;SDS011;1646;52.450;13.326;2023-04-02T23:31:52;7.27;;;1.57;;
3267;SDS011;1646;52.450;13.326;2023-04-02T23:36:50;7.20;;;1.70;;
3267;SDS011;1646;52.450;13.326;2023-04-02T23:41:50;9.63;;;1.80;;
3267;SDS011;1646;52.450;13.326;2023-04-02T23:46:48;9.90;;;2.30;;
3267;SDS011;1646;52.450;13.326;2023-04-02T23:51:47;5.40;;;1.40;;
3267;SDS011;1646;52.450;13.326;2023-04-02T23:56:46;6.23;;;1.50;;
